Time;durP1;ratioP1;P1;durP2;ratioP2;P2;SDS_P1;SDS_P2;PMS_P1;PMS_P2;Temp;Humidity;BMP_temperature;BMP_pressure;BME280_temperature;BME280_humidity;BME280_pressure;Samples;Min_cycle;Max_cycle;Signal;HPM_P1;HPM_P2
2022/08/28 00:00:50;;;;;;;9.88;2.80;;;;;;;13.77;100.00;100948.22;5029215;28;20909;-93
2022/08/28 00:03:24;;;;;;;11.30;2.97;;;;;;;13.73;100.00;100947.19;5015047;28;20784;-91
2022/08/28 00:05:58;;;;;;;9.20;2.65;;;;;;;13.71;100.00;100954.06;5013719;28;20421;-92
2022/08/28 00:08:31;;;;;;;11.98;2.95;;;;;;;13.77;100.00;100958.38;5015086;28;20427;-92
2022/08/28 00:11:05;;;;;;;12.75;2.65;;;;;;;13.68;100.00;100955.47;5029882;28;20424;-92
2022/08/28 00:13:39;;;;;;;9.20;2.67;;;;;;;13.58;100.00;100958.34;5013456;28;20421;-92
2022/08/28 00:16:13;;;;;;;12.23;2.90;;;;;;;13.69;100.00;100962.56;5014757;28;20432;-91
2022/08/28 00:18:47;;;;;;;12.57;2.95;;;;;;;13.36;100.00;100928.81;5012593;28;20440;-93
2022/08/28 00:21:20;;;;;;;9.73;2.60;;;;;;;13.31;100.00;100913.25;5020801;28;21225;-91
2022/08/28 00:23:54;;;;;;;11.35;2.88;;;;;;;13.58;100.00;100963.81;5032446;28;20406;-91
2022/08/28 00:29:23;;;;;;;15.48;2.50;;;;;;;13.49;100.00;100968.28;4964246;28;20423;-92
2022/08/28 00:31:52;;;;;;;9.80;2.35;;;;;;;13.49;100.00;100963.66;5039392;28;20397;-91
2022/08/28 00:34:27;;;;;;;9.75;2.53;;;;;;;13.52;100.00;100968.53;5046717;28;20431;-91
2022/08/28 00:37:00;;;;;;;10.35;2.63;;;;;;;13.49;100.00;100965.56;5016201;28;21029;-91
2022/08/28 00:39:33;;;;;;;7.07;2.00;;;;;;;13.48;100.00;100981.16;5033725;28;20407;-93
2022/08/28 00:42:07;;;;;;;13.38;2.88;;;;;;;13.50;100.00;100970.72;5034509;28;20450;-92
2022/08/28 00:44:40;;;;;;;9.57;2.50;;;;;;;13.47;100.00;100973.25;5015959;28;20419;-91
2022/08/28 00:47:13;;;;;;;10.70;2.42;;;;;;;13.48;100.00;100966.66;5015745;28;20415;-84
2022/08/28 00:49:52;;;;;;;9.93;2.72;;;;;;;13.50;100.00;100961.72;5016332;28;20419;-92
2022/08/28 00:52:25;;;;;;;11.23;2.78;;;;;;;13.51;100.00;100966.91;5016724;28;20895;-92
2022/08/28 00:55:02;;;;;;;11.23;2.50;;;;;;;13.41;100.00;100964.31;5015396;28;20419;-92
2022/08/28 00:57:39;;;;;;;12.75;2.50;;;;;;;13.33;100.00;100962.19;5014462;28;20427;-92
2022/08/28 01:00:16;;;;;;;8.68;2.90;;;;;;;13.36;100.00;100956.16;5034372;28;20423;-90
2022/08/28 01:02:50;;;;;;;14.32;2.50;;;;;;;13.40;100.00;100962.66;5032894;28;20423;-92
2022/08/28 01:05:25;;;;;;;10.43;2.60;;;;;;;13.27;100.00;100956.75;5016814;28;20426;-93
2022/08/28 01:07:59;;;;;;;10.23;2.45;;;;;;;13.21;100.00;100957.09;5034495;28;20418;-92
2022/08/28 01:10:34;;;;;;;13.67;2.57;;;;;;;13.26;100.00;100960.59;5035545;28;20415;-91
2022/08/28 01:13:07;;;;;;;11.40;2.88;;;;;;;13.30;100.00;100960.84;5033161;28;20793;-93
2022/08/28 01:15:41;;;;;;;12.55;2.75;;;;;;;13.23;100.00;100955.72;5040835;28;20430;-92
2022/08/28 01:18:15;;;;;;;12.10;2.72;;;;;;;13.21;100.00;100960.63;5015102;28;20419;-92
2022/08/28 01:20:52;;;;;;;8.95;2.47;;;;;;;13.04;100.00;100960.31;5016091;28;20434;-91
2022/08/28 01:23:41;;;;;;;13.55;2.78;;;;;;;13.12;100.00;100953.38;5032128;28;20419;-90
2022/08/28 01:26:14;;;;;;;9.00;2.50;;;;;;;13.06;100.00;100958.91;5016513;28;20419;-91
2022/08/28 01:28:47;;;;;;;13.93;2.60;;;;;;;13.12;100.00;100967.03;5033460;28;20926;-90
2022/08/28 01:31:16;;;;;;;17.27;2.83;;;;;;;13.06;100.00;100964.38;5035055;28;20418;-95
2022/08/28 01:33:49;;;;;;;11.80;2.80;;;;;;;13.13;100.00;100964.00;5033696;28;20423;-93
2022/08/28 01:36:23;;;;;;;11.27;2.45;;;;;;;13.16;100.00;100965.34;5034157;28;20434;-93
2022/08/28 01:39:02;;;;;;;10.48;2.75;;;;;;;13.09;100.00;100960.22;5035597;28;20888;-93
2022/08/28 01:41:38;;;;;;;12.00;2.55;;;;;;;13.05;100.00;100967.38;5031980;28;20795;-91
2022/08/28 01:44:12;;;;;;;10.38;2.40;;;;;;;13.02;100.00;100971.53;5037327;28;20423;-92
2022/08/28 01:46:46;;;;;;;13.77;3.10;;;;;;;12.95;100.00;100971.03;5044502;28;20431;-89
2022/08/28 01:49:21;;;;;;;9.10;2.33;;;;;;;12.83;100.00;100957.78;5033268;28;20934;-92
2022/08/28 01:51:56;;;;;;;8.60;2.50;;;;;;;12.90;100.00;100973.84;5017727;28;20431;-93
2022/08/28 01:54:31;;;;;;;13.30;2.50;;;;;;;12.99;100.00;100977.53;5014248;28;20445;-92
2022/08/28 01:57:04;;;;;;;10.45;2.90;;;;;;;13.00;100.00;100962.00;5035691;28;20422;-92
2022/08/28 01:59:37;;;;;;;13.40;2.70;;;;;;;13.07;100.00;100974.19;5027201;28;20430;-91
2022/08/28 02:02:10;;;;;;;10.85;2.70;;;;;;;13.03;100.00;100977.78;5035041;28;20438;-91
2022/08/28 02:04:44;;;;;;;10.37;2.70;;;;;;;12.98;100.00;100980.56;5033217;28;20430;-93
2022/08/28 02:07:17;;;;;;;11.45;2.63;;;;;;;13.01;100.00;100977.25;5015903;28;20784;-90
2022/08/28 02:09:51;;;;;;;9.48;2.67;;;;;;;12.59;100.00;100916.75;5033712;28;20430;-92
2022/08/28 02:12:25;;;;;;;8.80;2.50;;;;;;;12.86;100.00;100968.13;5036261;28;20422;-92
2022/08/28 02:14:58;;;;;;;8.55;2.60;;;;;;;12.65;100.00;100942.09;5036118;28;20502;-92
2022/08/28 02:17:28;;;;;;;9.68;3.13;;;;;;;12.59;100.00;100938.59;5020249;28;21265;-92
2022/08/28 02:20:02;;;;;;;10.88;2.95;;;;;;;12.48;100.00;100931.63;5036937;28;20898;-91
2022/08/28 02:22:35;;;;;;;11.48;2.58;;;;;;;12.81;100.00;100976.34;5035874;28;20510;-91
2022/08/28 02:25:10;;;;;;;13.05;2.83;;;;;;;12.79;100.00;100969.56;5041350;28;20427;-90
2022/08/28 02:27:44;;;;;;;12.25;2.53;;;;;;;12.73;100.00;100955.13;5028845;28;20417;-92
2022/08/28 02:30:18;;;;;;;11.93;2.97;;;;;;;12.46;100.00;100925.66;5042883;28;20422;-92
2022/08/28 02:32:47;;;;;;;10.20;2.85;;;;;;;12.37;100.00;100917.22;5042428;28;20410;-91
2022/08/28 02:35:22;;;;;;;9.45;2.75;;;;;;;12.50;100.00;100943.88;5037838;28;20419;-92
2022/08/28 02:37:51;;;;;;;10.90;2.63;;;;;;;12.54;100.00;100947.66;5039352;28;20410;-91
2022/08/28 02:40:25;;;;;;;9.25;2.72;;;;;;;12.52;100.00;100944.41;5024028;28;20799;-91
2022/08/28 02:42:59;;;;;;;9.82;2.75;;;;;;;12.41;100.00;100943.69;5021989;28;20427;-89
2022/08/28 02:45:32;;;;;;;12.55;2.95;;;;;;;12.46;100.00;100945.56;5038055;28;20440;-93
2022/08/28 02:48:05;;;;;;;13.15;2.97;;;;;;;12.55;100.00;100967.59;5013477;28;20427;-93
2022/08/28 02:50:34;;;;;;;12.88;2.90;;;;;;;12.53;100.00;100967.88;5021111;28;20795;-93
2022/08/28 02:53:07;;;;;;;14.23;2.88;;;;;;;12.53;100.00;100958.88;5035242;28;20420;-92
2022/08/28 02:55:36;;;;;;;11.05;2.95;;;;;;;12.33;100.00;100917.00;5014275;28;20426;-92
2022/08/28 02:58:09;;;;;;;9.77;2.50;;;;;;;12.62;100.00;100968.06;5041203;28;20480;-91
2022/08/28 03:00:43;;;;;;;10.40;2.70;;;;;;;12.38;100.00;100933.31;5018598;28;20490;-92
2022/08/28 03:03:16;;;;;;;14.18;2.97;;;;;;;12.64;100.00;100971.34;5041363;28;20434;-88
2022/08/28 03:05:49;;;;;;;11.70;2.58;;;;;;;12.30;100.00;100933.13;5018076;28;20941;-93
2022/08/28 03:08:23;;;;;;;12.90;2.72;;;;;;;12.55;100.00;100971.16;5013750;28;20431;-92
2022/08/28 03:10:53;;;;;;;10.55;2.90;;;;;;;12.54;100.00;100947.66;5043760;28;20894;-94
2022/08/28 03:13:27;;;;;;;14.07;3.38;;;;;;;12.40;100.00;100942.06;5033730;28;20419;-93
2022/08/28 03:16:00;;;;;;;8.13;2.35;;;;;;;12.31;100.00;100941.03;5039101;28;20426;-92
2022/08/28 03:18:34;;;;;;;12.25;2.72;;;;;;;12.51;100.00;100970.09;5022300;28;20427;-93
2022/08/28 03:21:07;;;;;;;13.10;2.80;;;;;;;12.51;100.00;100970.09;5022336;28;20418;-93
2022/08/28 03:23:41;;;;;;;9.20;2.55;;;;;;;12.42;100.00;100972.59;5028447;28;20428;-92
2022/08/28 03:26:12;;;;;;;9.87;2.87;;;;;;;12.29;100.00;100959.63;5037099;28;20506;-88
2022/08/28 03:28:48;;;;;;;9.82;2.60;;;;;;;12.44;100.00;100980.50;5039888;28;20977;-92
2022/08/28 03:31:25;;;;;;;9.93;2.70;;;;;;;12.37;100.00;100969.94;5039140;28;20434;-92
2022/08/28 03:33:59;;;;;;;9.60;2.80;;;;;;;12.42;100.00;100974.53;5041950;28;20780;-92
2022/08/28 03:36:33;;;;;;;11.50;2.50;;;;;;;12.21;100.00;100955.56;5033724;28;20438;-92
2022/08/28 03:39:06;;;;;;;10.53;2.60;;;;;;;12.37;100.00;100972.66;5033722;28;20461;-93
2022/08/28 03:41:36;;;;;;;10.15;2.97;;;;;;;12.33;100.00;100960.69;5031689;28;20752;-93
2022/08/28 03:44:09;;;;;;;10.55;2.40;;;;;;;12.42;100.00;100969.88;5019219;28;20423;-90
2022/08/28 03:46:42;;;;;;;10.73;2.63;;;;;;;12.33;100.00;100948.94;5035809;28;20418;-92
2022/08/28 03:49:16;;;;;;;10.00;2.53;;;;;;;12.34;100.00;100965.00;5035339;28;20419;-91
2022/08/28 03:51:49;;;;;;;12.10;2.70;;;;;;;12.37;100.00;100975.38;5035822;28;20494;-91
2022/08/28 03:54:17;;;;;;;11.73;3.03;;;;;;;12.36;100.00;100962.84;5030578;28;20446;-92
2022/08/28 03:56:52;;;;;;;12.75;2.97;;;;;;;12.28;100.00;100962.59;5017315;28;20415;-94
2022/08/28 03:59:25;;;;;;;14.80;3.10;;;;;;;12.25;100.00;100964.81;5034360;28;20422;-93
2022/08/28 04:01:58;;;;;;;12.88;2.70;;;;;;;12.37;100.00;100969.94;5033990;28;20418;-92
2022/08/28 04:04:26;;;;;;;11.73;2.67;;;;;;;12.38;100.00;100970.72;5035281;28;20418;-92
2022/08/28 04:07:00;;;;;;;11.65;2.60;;;;;;;12.27;100.00;100961.81;5017118;28;20430;-93
2022/08/28 04:09:33;;;;;;;10.45;2.85;;;;;;;12.44;100.00;100974.22;5017296;28;20903;-92
2022/08/28 04:12:08;;;;;;;11.40;2.78;;;;;;;12.44;100.00;100982.41;5036896;28;20427;-91
2022/08/28 04:14:42;;;;;;;13.85;2.60;;;;;;;12.43;100.00;100976.16;5040997;28;20933;-93
2022/08/28 04:17:15;;;;;;;12.77;2.80;;;;;;;12.36;100.00;100981.09;5034365;28;20434;-92
2022/08/28 04:19:51;;;;;;;13.10;2.75;;;;;;;12.35;100.00;100974.84;5033915;28;20423;-93
2022/08/28 04:22:20;;;;;;;11.65;3.10;;;;;;;12.29;100.00;100964.25;5018224;28;20432;-93
2022/08/28 04:24:53;;;;;;;12.90;2.65;;;;;;;12.16;100.00;100944.69;5038232;28;20435;-93
2022/08/28 04:27:28;;;;;;;13.98;2.60;;;;;;;12.50;100.00;100982.09;5021895;28;20428;-91
2022/08/28 04:29:56;;;;;;;12.10;2.57;;;;;;;12.35;100.00;100969.38;5031208;28;20411;-92
2022/08/28 04:32:30;;;;;;;11.63;2.83;;;;;;;12.37;100.00;100977.28;5029876;28;20456;-91
2022/08/28 04:34:58;;;;;;;12.43;2.70;;;;;;;12.06;100.00;100937.38;5017380;28;20487;-91
2022/08/28 04:37:31;;;;;;;8.30;2.47;;;;;;;12.09;100.00;100938.75;5037707;28;20419;-91
2022/08/28 04:40:08;;;;;;;10.68;2.38;;;;;;;12.13;100.00;100936.28;5045121;28;20422;-93
2022/08/28 04:42:43;;;;;;;9.05;2.75;;;;;;;12.30;100.00;100968.59;5020279;28;20430;-92
2022/08/28 04:45:17;;;;;;;8.18;2.40;;;;;;;12.23;100.00;100961.53;5036351;28;20434;-91
2022/08/28 04:47:50;;;;;;;13.93;2.75;;;;;;;12.21;100.00;100954.75;5037998;28;20423;-89
2022/08/28 04:50:24;;;;;;;12.10;2.92;;;;;;;12.16;100.00;100941.16;5044684;28;20427;-92
2022/08/28 04:52:53;;;;;;;14.35;2.97;;;;;;;12.48;100.00;100994.41;5034145;28;20415;-92
2022/08/28 04:55:26;;;;;;;14.57;2.42;;;;;;;12.16;100.00;100947.41;5012957;28;20504;-92
2022/08/28 04:58:00;;;;;;;11.77;2.50;;;;;;;12.55;100.00;101001.19;5035497;28;20427;-92
2022/08/28 05:00:33;;;;;;;9.40;2.70;;;;;;;12.61;100.00;101001.09;5034104;28;20442;-93
2022/08/28 05:03:02;;;;;;;9.55;2.60;;;;;;;12.69;100.00;101005.97;5016160;28;20431;-91
2022/08/28 05:05:41;;;;;;;9.35;2.28;;;;;;;12.96;100.00;100996.44;5025529;28;20426;-93
2022/08/28 05:08:09;;;;;;;9.80;2.50;;;;;;;13.57;100.00;101009.47;5034162;28;20411;-93
2022/08/28 05:10:43;;;;;;;12.40;2.60;;;;;;;13.97;100.00;101005.69;5031584;28;20427;-94
2022/08/28 05:13:18;;;;;;;10.98;2.60;;;;;;;14.46;100.00;101012.66;5033223;28;20438;-91
2022/08/28 05:15:52;;;;;;;12.80;2.53;;;;;;;14.95;100.00;101014.03;5034591;28;20436;-94
2022/08/28 05:18:25;;;;;;;8.68;2.40;;;;;;;14.72;100.00;101007.59;5034957;28;20410;-93
2022/08/28 05:20:59;;;;;;;9.03;2.43;;;;;;;14.10;100.00;101008.50;5033687;28;20422;-93
2022/08/28 05:23:32;;;;;;;10.15;3.03;;;;;;;14.07;100.00;101020.06;5015154;28;20420;-91
2022/08/28 05:26:05;;;;;;;14.27;2.50;;;;;;;13.95;100.00;101011.47;5031585;28;20446;-92
2022/08/28 05:28:35;;;;;;;8.68;2.53;;;;;;;13.75;100.00;101005.16;5026046;28;20403;-92
2022/08/28 05:31:09;;;;;;;10.40;2.60;;;;;;;13.74;100.00;101019.94;5033504;28;20426;-92
2022/08/28 05:33:37;;;;;;;9.15;2.80;;;;;;;13.70;100.00;101012.59;5015337;28;20427;-90
2022/08/28 05:36:07;;;;;;;9.15;2.08;;;;;;;13.68;100.00;101020.28;5031072;28;20416;-93
2022/08/28 05:38:40;;;;;;;9.63;2.78;;;;;;;13.74;100.00;101013.63;5034275;28;20426;-91
2022/08/28 05:41:20;;;;;;;9.82;2.75;;;;;;;13.82;100.00;101021.19;5007275;28;20427;-92
2022/08/28 05:43:54;;;;;;;8.38;2.38;;;;;;;13.86;100.00;101021.44;5015790;28;20419;-91
2022/08/28 05:46:28;;;;;;;11.50;2.70;;;;;;;13.93;100.00;101019.13;5032020;28;20434;-91
2022/08/28 05:49:02;;;;;;;11.13;2.55;;;;;;;13.95;100.00;101028.69;5031297;28;20415;-90
2022/08/28 05:51:30;;;;;;;10.82;2.78;;;;;;;14.13;100.00;101031.75;5031253;28;20423;-90
2022/08/28 05:54:03;;;;;;;10.32;2.38;;;;;;;14.03;100.00;101019.03;5030663;28;20780;-91
2022/08/28 05:56:39;;;;;;;14.37;2.83;;;;;;;14.18;100.00;101020.69;5025034;28;20426;-89
2022/08/28 05:59:10;;;;;;;10.50;2.65;;;;;;;14.08;100.00;100985.28;5037941;28;20763;-90
2022/08/28 06:01:40;;;;;;;11.88;2.58;;;;;;;14.33;100.00;101027.88;5007044;28;20426;-92
2022/08/28 06:04:16;;;;;;;10.65;2.50;;;;;;;14.29;100.00;101026.84;5032235;28;20953;-91
2022/08/28 06:06:49;;;;;;;13.65;2.80;;;;;;;14.41;100.00;101023.66;5031520;28;20423;-90
2022/08/28 06:09:25;;;;;;;10.75;2.50;;;;;;;14.38;100.00;101024.28;5029320;28;20419;-91
2022/08/28 06:12:01;;;;;;;11.47;2.87;;;;;;;14.43;100.00;101032.38;5032092;28;20421;-93
2022/08/28 06:14:35;;;;;;;12.13;2.55;;;;;;;14.59;100.00;101031.03;5029983;28;20419;-89
2022/08/28 06:17:08;;;;;;;11.85;2.65;;;;;;;14.69;100.00;101041.03;5013493;28;20419;-89
2022/08/28 06:19:41;;;;;;;15.80;2.78;;;;;;;14.75;100.00;101042.59;5029990;28;20434;-90
2022/08/28 06:22:15;;;;;;;12.30;2.63;;;;;;;14.78;100.00;101044.75;5031930;28;20415;-91
2022/08/28 06:24:48;;;;;;;9.95;2.47;;;;;;;14.93;100.00;101053.84;5029973;28;20423;-91
2022/08/28 06:27:21;;;;;;;13.57;2.40;;;;;;;15.03;100.00;101050.91;5029384;28;20407;-89
2022/08/28 06:29:57;;;;;;;11.10;2.78;;;;;;;15.09;100.00;101048.88;5029551;28;20962;-90
2022/08/28 06:32:30;;;;;;;9.50;2.30;;;;;;;15.10;100.00;101050.50;5030475;28;20438;-88
2022/08/28 06:35:04;;;;;;;10.95;2.05;;;;;;;15.11;100.00;101049.41;5032863;28;20768;-91
2022/08/28 06:37:37;;;;;;;11.07;2.50;;;;;;;15.36;100.00;101055.53;5012551;28;20427;-91
2022/08/28 06:40:10;;;;;;;10.40;2.65;;;;;;;15.32;100.00;101055.31;5029233;28;20430;-90
2022/08/28 06:42:43;;;;;;;12.02;2.88;;;;;;;15.52;100.00;101056.03;5013551;28;20426;-91
2022/08/28 06:45:18;;;;;;;11.35;2.83;;;;;;;15.45;100.00;101060.03;5025718;28;20435;-90
2022/08/28 06:47:47;;;;;;;12.63;2.60;;;;;;;15.47;100.00;101054.22;5020998;28;20414;-91
2022/08/28 06:50:20;;;;;;;12.50;2.35;;;;;;;15.36;100.00;101061.03;5011192;28;20796;-91
2022/08/28 06:52:48;;;;;;;9.60;2.22;;;;;;;15.39;100.00;101061.22;5030022;28;20445;-91
2022/08/28 06:55:22;;;;;;;12.38;2.60;;;;;;;15.61;100.00;101062.47;5022932;28;20768;-91
2022/08/28 06:57:55;;;;;;;11.05;2.60;;;;;;;15.36;100.00;101039.09;5028119;28;20431;-91
2022/08/28 07:00:29;;;;;;;13.07;2.78;;;;;;;15.75;100.00;101063.25;5031250;28;20430;-90
2022/08/28 07:03:04;;;;;;;13.88;2.55;;;;;;;15.89;100.00;101067.97;5012072;28;20442;-91
2022/08/28 07:05:37;;;;;;;8.80;2.15;;;;;;;15.88;100.00;101064.41;5009353;28;20423;-92
2022/08/28 07:08:06;;;;;;;12.10;2.40;;;;;;;15.95;100.00;101069.47;5013257;28;20434;-92
2022/08/28 07:10:39;;;;;;;14.75;2.42;;;;;;;16.04;100.00;101070.38;5029217;28;20419;-89
2022/08/28 07:13:07;;;;;;;12.48;2.47;;;;;;;16.18;100.00;101073.09;5038603;28;20434;-92
2022/08/28 07:15:39;;;;;;;11.30;2.30;;;;;;;16.14;100.00;101069.34;5034914;28;20444;-92
2022/08/28 07:18:07;;;;;;;11.80;2.35;;;;;;;16.20;100.00;101079.13;5016854;28;20414;-92
2022/08/28 07:20:35;;;;;;;11.73;3.03;;;;;;;16.30;100.00;101078.06;5022747;28;20415;-90
2022/08/28 07:23:08;;;;;;;20.58;5.18;;;;;;;16.39;100.00;101078.97;5004095;28;20431;-88
2022/08/28 07:25:41;;;;;;;10.05;2.45;;;;;;;16.31;100.00;101083.25;5016412;28;20775;-91
2022/08/28 07:28:09;;;;;;;12.95;2.20;;;;;;;16.29;100.00;101063.50;5034851;28;20423;-89
2022/08/28 07:30:45;;;;;;;12.05;2.45;;;;;;;16.40;100.00;101085.28;5021564;28;20436;-88
2022/08/28 07:33:18;;;;;;;12.43;2.53;;;;;;;16.39;100.00;101080.88;5024869;28;20926;-88
2022/08/28 07:35:51;;;;;;;8.65;2.20;;;;;;;16.46;100.00;101087.59;5032877;28;20899;-91
2022/08/28 07:38:25;;;;;;;9.00;2.08;;;;;;;16.28;100.00;101078.38;5007529;28;20427;-88
2022/08/28 07:40:58;;;;;;;10.57;2.30;;;;;;;16.57;100.00;101090.09;5030807;28;20422;-93
2022/08/28 07:46:23;;;;;;;12.98;2.42;;;;;;;16.50;100.00;101087.78;5011438;28;20446;-94
2022/08/28 07:48:57;;;;;;;10.07;2.30;;;;;;;16.49;100.00;101089.72;5037277;28;20435;-91
2022/08/28 07:51:30;;;;;;;10.50;2.35;;;;;;;16.59;100.00;101101.59;5031861;28;20791;-92
2022/08/28 07:53:59;;;;;;;11.63;2.53;;;;;;;16.84;100.00;101091.94;5019977;28;20422;-92
2022/08/28 07:56:28;;;;;;;8.63;2.17;;;;;;;16.87;100.00;101080.31;5035332;28;20910;-92
2022/08/28 07:58:58;;;;;;;12.52;2.50;;;;;;;17.06;100.00;101102.13;5009448;28;20429;-90
2022/08/28 08:01:37;;;;;;;12.45;2.50;;;;;;;16.89;100.00;101099.25;5038328;28;20467;-91
2022/08/28 08:04:12;;;;;;;11.20;2.58;;;;;;;16.76;100.00;101109.16;5022994;28;20905;-93
2022/08/28 08:06:41;;;;;;;9.70;2.47;;;;;;;16.70;100.00;101102.19;5011752;28;20418;-94
2022/08/28 08:09:17;;;;;;;8.02;2.30;;;;;;;17.04;100.00;101103.56;5027415;28;20943;-93
2022/08/28 08:11:51;;;;;;;9.90;2.10;;;;;;;16.87;100.00;101110.53;5037192;28;20451;-88
2022/08/28 08:14:24;;;;;;;11.00;2.95;;;;;;;16.75;100.00;101102.88;5012192;28;20930;-89
2022/08/28 08:17:01;;;;;;;11.65;2.08;;;;;;;16.82;100.00;101108.75;5034937;28;21162;-93
2022/08/28 08:19:35;;;;;;;10.23;2.17;;;;;;;17.02;100.00;101106.63;5025987;28;20437;-91
2022/08/28 08:22:09;;;;;;;11.13;2.22;;;;;;;16.92;100.00;101110.44;5034324;28;20438;-95
2022/08/28 08:24:42;;;;;;;8.50;2.50;;;;;;;16.93;100.00;101117.59;5034012;28;20427;-93
2022/08/28 08:27:15;;;;;;;10.40;2.20;;;;;;;16.95;100.00;101120.81;5031878;28;20933;-93
2022/08/28 08:29:49;;;;;;;12.00;2.50;;;;;;;17.15;100.00;101115.94;5033462;28;20422;-91
2022/08/28 08:32:23;;;;;;;10.97;2.40;;;;;;;17.19;100.00;101119.69;5012127;28;20439;-91
2022/08/28 08:34:56;;;;;;;10.85;2.50;;;;;;;17.22;100.00;101116.31;5028709;28;20430;-89
2022/08/28 08:37:29;;;;;;;8.65;2.15;;;;;;;17.15;100.00;101114.00;5030461;28;20423;-89
2022/08/28 08:40:03;;;;;;;9.90;2.00;;;;;;;17.18;100.00;101123.59;5028593;28;20415;-90
2022/08/28 08:42:37;;;;;;;8.82;2.10;;;;;;;17.11;100.00;101117.69;5026892;28;20432;-90
2022/08/28 08:45:14;;;;;;;10.68;2.40;;;;;;;17.00;100.00;101125.41;5016143;28;20423;-93
2022/08/28 08:47:51;;;;;;;14.38;2.50;;;;;;;16.94;100.00;101123.88;5011217;28;20419;-91
2022/08/28 08:50:28;;;;;;;8.20;2.20;;;;;;;17.20;100.00;101121.31;5030127;28;20425;-90
2022/08/28 08:53:22;;;;;;;13.48;2.63;;;;;;;17.61;100.00;101111.97;5022734;28;20435;-92
2022/08/28 08:55:53;;;;;;;13.73;4.95;;;;;;;17.67;100.00;101110.69;5024717;28;20428;-88
2022/08/28 08:58:35;;;;;;;8.23;2.53;;;;;;;17.47;100.00;101119.53;5008478;28;20433;-88
2022/08/28 09:01:15;;;;;;;7.15;1.65;;;;;;;17.42;100.00;101114.97;5026223;28;20438;-86
2022/08/28 09:03:55;;;;;;;8.63;1.83;;;;;;;17.27;100.00;101090.63;5037406;28;20898;-93
2022/08/28 09:06:38;;;;;;;7.18;2.00;;;;;;;17.48;100.00;101110.97;5009912;28;20427;-93
2022/08/28 09:09:26;;;;;;;6.32;2.03;;;;;;;17.25;100.00;101093.69;5021610;28;20433;-92
2022/08/28 09:12:03;;;;;;;9.63;2.20;;;;;;;17.32;100.00;101115.25;5032920;28;20923;-89
2022/08/28 09:14:51;;;;;;;9.57;2.20;;;;;;;17.75;100.00;101114.63;5026494;28;20435;-89
2022/08/28 09:17:31;;;;;;;12.87;2.50;;;;;;;17.94;100.00;101113.59;5033534;28;20430;-95
2022/08/28 09:20:09;;;;;;;9.68;2.20;;;;;;;18.23;100.00;101115.78;5033028;28;20419;-93
2022/08/28 09:22:42;;;;;;;9.95;2.22;;;;;;;18.25;100.00;101113.50;5034193;28;20406;-94
2022/08/28 09:25:49;;;;;;;9.13;2.40;;;;;;;18.12;100.00;101107.00;5017390;28;20438;-94
2022/08/28 09:28:26;;;;;;;8.82;2.35;;;;;;;17.81;100.00;101113.34;5035331;28;20439;-93
2022/08/28 09:31:01;;;;;;;5.35;1.77;;;;;;;17.81;100.00;101107.84;5033139;28;20776;-92
2022/08/28 09:33:40;;;;;;;9.27;2.20;;;;;;;18.07;100.00;101118.16;5017822;28;20442;-93
2022/08/28 09:36:31;;;;;;;7.03;1.90;;;;;;;18.26;100.00;101106.06;5011147;28;20915;-91
2022/08/28 09:39:13;;;;;;;7.73;2.10;;;;;;;18.32;100.00;101113.03;5010082;28;20434;-92
2022/08/28 09:44:51;;;;;;;7.13;2.25;;;;;;;18.48;100.00;101105.91;5012775;28;20434;-90
2022/08/28 09:47:42;;;;;;;6.97;1.90;;;;;;;18.69;100.00;101110.78;5030210;28;20435;-92
2022/08/28 09:50:27;;;;;;;7.13;1.88;;;;;;;18.57;100.00;101107.88;5025751;28;20451;-89
2022/08/28 09:53:16;;;;;;;9.27;2.25;;;;;;;18.67;100.00;101116.63;5009991;28;20760;-91
2022/08/28 09:56:13;;;;;;;9.63;2.42;;;;;;;18.84;100.00;101115.00;5023370;28;20444;-92
2022/08/28 09:58:50;;;;;;;9.32;2.13;;;;;;;18.79;100.00;101117.91;5022029;28;20426;-91
2022/08/28 10:01:36;;;;;;;8.10;1.80;;;;;;;18.99;100.00;101102.69;5028185;28;20530;-89
2022/08/28 10:04:23;;;;;;;8.93;2.25;;;;;;;19.14;100.00;101107.69;5027824;28;20453;-92
2022/08/28 10:06:54;;;;;;;14.02;2.25;;;;;;;18.99;100.00;101113.72;5006488;28;20454;-89
2022/08/28 10:09:39;;;;;;;8.10;2.00;;;;;;;19.05;100.00;101106.09;5023143;28;20431;-93
2022/08/28 10:12:26;;;;;;;9.25;2.17;;;;;;;18.98;100.00;101109.34;5026236;28;20433;-93
2022/08/28 10:15:04;;;;;;;7.00;2.03;;;;;;;19.02;100.00;101111.09;5023709;28;20435;-87
2022/08/28 10:17:47;;;;;;;9.43;2.10;;;;;;;18.88;100.00;101109.66;5025044;28;20542;-92
2022/08/28 10:20:24;;;;;;;7.15;2.30;;;;;;;18.99;100.00;101105.47;5010516;28;20477;-91
2022/08/28 10:23:08;;;;;;;6.53;2.10;;;;;;;18.96;100.00;101103.31;5008642;28;20431;-85
2022/08/28 10:25:51;;;;;;;6.53;2.00;;;;;;;18.80;100.00;101073.47;5010549;28;20440;-91
2022/08/28 10:28:35;;;;;;;6.30;2.10;;;;;;;19.07;100.00;101101.03;5015872;28;20522;-92
2022/08/28 10:31:19;;;;;;;6.32;1.90;;;;;;;18.99;100.00;101100.75;4999733;28;20433;-87
2022/08/28 10:34:07;;;;;;;8.02;2.20;;;;;;;19.02;100.00;101094.56;5015033;28;20934;-87
2022/08/28 10:36:44;;;;;;;8.05;2.25;;;;;;;19.40;100.00;101098.53;5000769;28;20535;-86
2022/08/28 10:39:43;;;;;;;7.50;2.30;;;;;;;19.36;100.00;101076.31;5002319;28;20473;-86
2022/08/28 10:42:26;;;;;;;7.47;2.30;;;;;;;18.75;100.00;101111.44;5008900;28;20421;-89
2022/08/28 10:45:04;;;;;;;8.60;2.33;;;;;;;18.88;100.00;101112.41;5005321;28;20425;-89
2022/08/28 10:47:37;;;;;;;9.13;2.17;;;;;;;19.06;100.00;101110.44;5005256;28;20445;-86
2022/08/28 10:50:17;;;;;;;7.20;2.03;;;;;;;19.00;100.00;101104.28;5023790;28;20432;-88
2022/08/28 10:52:51;;;;;;;9.18;2.17;;;;;;;18.90;100.00;101101.88;5010137;28;20432;-92
2022/08/28 10:55:24;;;;;;;6.90;2.20;;;;;;;18.90;100.00;101086.16;5012705;28;20417;-87
2022/08/28 10:57:57;;;;;;;8.40;2.58;;;;;;;19.08;100.00;101095.19;5009322;28;21108;-89
2022/08/28 11:00:32;;;;;;;7.70;2.27;;;;;;;19.32;100.00;101099.34;5008321;28;20431;-89
2022/08/28 11:03:04;;;;;;;8.65;2.20;;;;;;;19.84;100.00;101098.38;5024545;28;20873;-90
2022/08/28 11:05:39;;;;;;;7.43;2.40;;;;;;;20.14;100.00;101095.63;5024343;28;20794;-87
2022/08/28 11:08:18;;;;;;;7.82;2.20;;;;;;;20.02;100.00;101105.44;5022595;28;20437;-92
2022/08/28 11:10:56;;;;;;;8.40;3.13;;;;;;;19.76;100.00;101094.50;5005118;28;20435;-90
2022/08/28 11:13:54;;;;;;;6.43;1.70;;;;;;;19.64;100.00;101111.75;5022961;28;20434;-92
2022/08/28 11:16:36;;;;;;;6.60;1.60;;;;;;;19.41;100.00;101091.88;4998872;28;20443;-88
2022/08/28 11:19:49;;;;;;;6.70;1.90;;;;;;;19.26;100.00;101114.47;5005236;28;20431;-87
2022/08/28 11:22:22;;;;;;;8.30;1.80;;;;;;;19.36;100.00;101108.59;5003149;28;20427;-87
2022/08/28 11:25:03;;;;;;;7.10;1.80;;;;;;;19.39;100.00;101107.97;5005795;28;20426;-92
2022/08/28 11:27:36;;;;;;;8.10;1.90;;;;;;;19.47;100.00;101123.69;5018203;28;21001;-91
2022/08/28 11:30:35;;;;;;;6.43;1.90;;;;;;;19.40;100.00;101112.31;4999071;28;20448;-89
2022/08/28 11:33:34;;;;;;;8.02;2.17;;;;;;;19.74;100.00;101109.78;5023856;28;21154;-87
2022/08/28 11:36:11;;;;;;;6.68;1.92;;;;;;;19.64;100.00;101108.19;5001396;28;20435;-89
2022/08/28 11:39:21;;;;;;;7.47;1.83;;;;;;;19.43;100.00;101122.72;5021501;28;21418;-89
2022/08/28 11:42:30;;;;;;;6.00;1.98;;;;;;;19.33;100.00;101123.88;5002285;28;20421;-90
2022/08/28 11:45:05;;;;;;;7.20;2.00;;;;;;;19.39;100.00;101119.00;5024971;28;20436;-89
2022/08/28 11:47:44;;;;;;;10.13;2.20;;;;;;;19.49;100.00;101129.66;4997551;28;20954;-86
2022/08/28 11:50:27;;;;;;;25.23;15.17;;;;;;;19.40;100.00;101097.72;4994761;28;20848;-91
2022/08/28 11:53:34;;;;;;;7.75;2.15;;;;;;;19.38;100.00;101123.69;4998298;28;20444;-92
2022/08/28 11:56:48;;;;;;;7.20;2.20;;;;;;;19.36;100.00;101125.97;4996306;28;20434;-90
2022/08/28 11:59:51;;;;;;;6.15;2.22;;;;;;;19.49;100.00;101093.78;5010324;28;20421;-91